Time;durP1;ratioP1;P1;durP2;ratioP2;P2;SDS_P1;SDS_P2;PMS_P1;PMS_P2;Temp;Humidity;BMP_temperature;BMP_pressure;BME280_temperature;BME280_humidity;BME280_pressure;Samples;Min_cycle;Max_cycle;Signal;HPM_P1;HPM_P2
2023/04/24 00:00:24;;;;;;;5.75;1.60;;;;;;;9.90;100.00;98001.00;5052446;28;20056;-58
2023/04/24 00:02:51;;;;;;;2.55;1.40;;;;;;;9.95;100.00;98002.88;5058333;28;20045;-59
2023/04/24 00:05:18;;;;;;;1.67;1.48;;;;;;;9.90;100.00;97998.31;5054226;28;20507;-59
2023/04/24 00:07:45;;;;;;;1.58;1.27;;;;;;;10.02;100.00;97997.25;5056397;28;20475;-59
2023/04/24 00:10:12;;;;;;;1.63;1.23;;;;;;;9.96;100.00;97996.47;5053652;28;20534;-59
2023/04/24 00:12:41;;;;;;;3.78;1.50;;;;;;;9.92;100.00;97998.06;5057218;28;20458;-59
2023/04/24 00:15:09;;;;;;;3.38;1.30;;;;;;;9.84;100.00;98001.28;5051842;28;20140;-59
2023/04/24 00:17:36;;;;;;;2.67;1.17;;;;;;;9.83;100.00;97994.31;5056580;28;20131;-59
2023/04/24 00:20:05;;;;;;;2.00;1.30;;;;;;;9.78;100.00;98003.13;5051469;28;20436;-60
2023/04/24 00:22:33;;;;;;;1.40;1.30;;;;;;;9.84;100.00;97998.59;5061722;28;20068;-59
2023/04/24 00:25:00;;;;;;;2.67;1.17;;;;;;;9.78;100.00;98002.34;5051553;28;20526;-59
2023/04/24 00:27:27;;;;;;;3.78;1.40;;;;;;;9.78;100.00;98015.72;5054211;28;20371;-59
2023/04/24 00:29:56;;;;;;;1.88;1.23;;;;;;;9.83;100.00;98008.47;5052664;28;20080;-59
2023/04/24 00:32:23;;;;;;;1.42;1.30;;;;;;;9.79;100.00;97995.94;5058289;28;20490;-59
2023/04/24 00:34:50;;;;;;;3.70;1.40;;;;;;;9.76;100.00;97988.41;5052600;28;20045;-59
2023/04/24 00:37:17;;;;;;;1.30;1.10;;;;;;;9.70;100.00;97996.44;5054837;28;20045;-59
2023/04/24 00:39:45;;;;;;;4.55;1.33;;;;;;;9.65;100.00;97988.41;5057102;28;20044;-59
2023/04/24 00:42:12;;;;;;;1.98;1.50;;;;;;;9.61;100.00;97995.38;5059241;28;20477;-58
2023/04/24 00:44:39;;;;;;;3.58;1.20;;;;;;;9.49;100.00;97986.81;5056882;28;20045;-59
2023/04/24 00:47:07;;;;;;;2.85;1.05;;;;;;;9.45;100.00;97983.03;5054486;28;20037;-59
2023/04/24 00:49:35;;;;;;;1.88;1.20;;;;;;;9.42;100.00;97983.59;5052362;28;20048;-59
2023/04/24 00:52:02;;;;;;;2.15;1.20;;;;;;;9.37;100.00;97986.25;5056419;28;20053;-59
2023/04/24 00:54:29;;;;;;;2.50;1.40;;;;;;;9.41;100.00;97984.63;5053293;28;20498;-59
2023/04/24 00:56:56;;;;;;;1.60;1.20;;;;;;;9.38;100.00;97979.81;5052258;28;20047;-58
2023/04/24 00:59:23;;;;;;;1.92;1.38;;;;;;;9.35;100.00;97975.00;5054377;28;20037;-58
2023/04/24 01:01:50;;;;;;;1.67;1.40;;;;;;;9.38;100.00;97983.28;5052761;28;20523;-59
2023/04/24 01:04:19;;;;;;;2.67;1.27;;;;;;;9.30;100.00;97981.16;5053501;28;20082;-58
2023/04/24 01:06:46;;;;;;;3.05;1.25;;;;;;;9.21;100.00;97983.53;5054913;28;20676;-59
2023/04/24 01:09:14;;;;;;;2.55;1.40;;;;;;;9.20;100.00;97971.22;5051437;28;20518;-59
2023/04/24 01:11:41;;;;;;;1.65;1.38;;;;;;;9.22;100.00;97979.78;5058903;28;20076;-59
2023/04/24 01:14:08;;;;;;;3.22;1.48;;;;;;;9.20;100.00;97981.91;5055844;28;20470;-59
2023/04/24 01:16:38;;;;;;;2.53;1.45;;;;;;;9.17;100.00;97977.09;5060297;28;20037;-59
2023/04/24 01:19:05;;;;;;;2.20;1.58;;;;;;;9.22;98.53;97990.50;5046168;28;20673;-59
2023/04/24 01:21:34;;;;;;;4.97;1.70;;;;;;;9.18;98.93;97994.75;5048739;28;20109;-59
2023/04/24 01:24:02;;;;;;;2.13;1.70;;;;;;;9.12;100.00;97995.81;5051105;28;20144;-59
2023/04/24 01:26:29;;;;;;;2.28;1.60;;;;;;;9.05;100.00;97987.22;5062140;28;20049;-59
2023/04/24 01:28:56;;;;;;;1.95;1.50;;;;;;;8.99;100.00;97993.63;5047951;28;20337;-59
2023/04/24 01:31:23;;;;;;;4.15;1.50;;;;;;;8.98;100.00;97994.69;5049413;28;20059;-59
2023/04/24 01:33:50;;;;;;;2.58;1.70;;;;;;;8.92;100.00;97987.72;5059687;28;20506;-59
2023/04/24 01:36:18;;;;;;;1.90;1.40;;;;;;;8.81;100.00;97990.38;5061227;28;20041;-59
2023/04/24 01:38:45;;;;;;;4.28;1.60;;;;;;;8.85;100.00;97991.44;5057935;28;20059;-59
2023/04/24 01:41:13;;;;;;;2.85;1.70;;;;;;;8.83;100.00;97998.91;5053225;28;20056;-60
2023/04/24 01:43:40;;;;;;;2.13;1.67;;;;;;;8.85;100.00;97998.66;5060501;28;20433;-59
2023/04/24 01:46:07;;;;;;;3.63;2.50;;;;;;;8.76;100.00;98001.03;5073158;28;20040;-60
2023/04/24 01:48:36;;;;;;;3.05;1.80;;;;;;;8.78;100.00;98001.53;5054634;28;20090;-59
2023/04/24 01:51:03;;;;;;;4.70;1.90;;;;;;;8.81;100.00;98006.41;5055398;28;20144;-59
2023/04/24 01:53:30;;;;;;;3.03;1.90;;;;;;;8.83;100.00;98011.47;5058368;28;20033;-58
2023/04/24 01:55:58;;;;;;;3.22;2.10;;;;;;;8.75;100.00;98007.41;5059635;28;20047;-59
2023/04/24 01:58:27;;;;;;;3.17;2.10;;;;;;;8.72;100.00;98007.94;5059994;28;20048;-59
2023/04/24 02:00:54;;;;;;;4.57;1.92;;;;;;;8.80;100.00;98009.31;5057043;28;20622;-59
2023/04/24 02:03:21;;;;;;;3.60;2.38;;;;;;;8.76;100.00;98013.56;5058624;28;20148;-59
2023/04/24 02:05:49;;;;;;;3.05;2.30;;;;;;;8.74;100.00;98011.16;5057111;28;20045;-59
2023/04/24 02:08:16;;;;;;;3.22;2.17;;;;;;;8.76;100.00;98014.38;5056840;28;20053;-59
2023/04/24 02:10:44;;;;;;;3.35;2.60;;;;;;;8.75;100.00;98018.09;5058931;28;20041;-59
2023/04/24 02:13:11;;;;;;;3.80;2.38;;;;;;;8.87;100.00;98022.44;5059318;28;20131;-59
2023/04/24 02:15:39;;;;;;;5.22;2.40;;;;;;;8.81;99.11;98035.78;5053630;28;20666;-61
2023/04/24 02:18:06;;;;;;;4.38;2.42;;;;;;;8.94;98.39;98041.72;5051877;28;20136;-59
2023/04/24 02:20:35;;;;;;;5.03;2.42;;;;;;;8.87;97.78;98046.50;5064599;28;20036;-59
2023/04/24 02:23:02;;;;;;;5.10;2.60;;;;;;;8.84;97.09;98051.28;5062747;28;20045;-59
2023/04/24 02:25:29;;;;;;;5.50;2.63;;;;;;;8.79;95.15;98056.59;5057339;28;20044;-59
2023/04/24 02:27:56;;;;;;;5.80;2.60;;;;;;;8.78;93.92;98056.84;5053740;28;20837;-59
2023/04/24 02:30:23;;;;;;;4.28;3.00;;;;;;;8.71;91.71;98065.13;5052598;28;20044;-59
2023/04/24 02:32:52;;;;;;;5.97;3.13;;;;;;;8.60;87.72;98060.75;5057836;28;20586;-59
2023/04/24 02:35:19;;;;;;;8.10;3.20;;;;;;;8.50;89.16;98068.72;5061747;28;20436;-59
2023/04/24 02:37:46;;;;;;;9.48;3.60;;;;;;;8.37;89.48;98073.41;5053808;28;20037;-59
2023/04/24 02:40:13;;;;;;;5.45;3.30;;;;;;;8.42;90.55;98076.13;5056463;28;20064;-59
2023/04/24 02:42:40;;;;;;;8.07;3.30;;;;;;;8.39;87.03;98075.81;5060603;28;20075;-58
2023/04/24 02:45:10;;;;;;;4.60;3.13;;;;;;;8.26;88.39;98076.25;5062565;28;20111;-59
2023/04/24 02:47:37;;;;;;;4.97;3.20;;;;;;;8.23;86.95;98074.09;5049690;28;20380;-59
2023/04/24 02:50:08;;;;;;;5.07;3.45;;;;;;;8.13;86.31;98077.47;5064202;28;20127;-59
2023/04/24 02:52:35;;;;;;;6.25;3.40;;;;;;;7.96;86.78;98081.09;5057819;28;20473;-59
2023/04/24 02:55:02;;;;;;;7.55;3.58;;;;;;;7.98;86.41;98084.28;5054203;28;20052;-60
2023/04/24 02:57:29;;;;;;;8.07;3.63;;;;;;;7.76;87.17;98081.69;5054675;28;20129;-59
2023/04/24 02:59:56;;;;;;;6.57;3.85;;;;;;;7.70;86.23;98090.69;5075515;28;20040;-59
2023/04/24 03:02:23;;;;;;;7.13;3.83;;;;;;;7.63;87.11;98091.94;5060153;28;20079;-59
2023/04/24 03:04:50;;;;;;;5.95;3.72;;;;;;;7.53;87.37;98096.13;5057604;28;20515;-59
2023/04/24 03:07:20;;;;;;;5.43;3.72;;;;;;;7.42;87.40;98097.06;5060091;28;20598;-59
2023/04/24 03:09:47;;;;;;;5.72;3.78;;;;;;;7.39;88.79;98105.56;5056544;28;20040;-59
2023/04/24 03:12:17;;;;;;;6.72;3.72;;;;;;;7.35;91.09;98097.25;5055598;28;20048;-59
2023/04/24 03:14:44;;;;;;;5.93;3.90;;;;;;;7.32;90.26;98108.41;5057282;28;20429;-59
2023/04/24 03:17:11;;;;;;;6.20;3.65;;;;;;;7.23;89.85;98103.75;5065295;28;20048;-59
2023/04/24 03:19:38;;;;;;;6.05;3.50;;;;;;;7.26;88.91;98111.25;5054069;28;20515;-59
2023/04/24 03:22:11;;;;;;;5.53;3.85;;;;;;;7.15;89.30;98118.31;5061263;28;20041;-59
2023/04/24 03:24:40;;;;;;;6.47;3.53;;;;;;;7.05;89.19;98116.34;5058846;28;20403;-59
2023/04/24 03:27:07;;;;;;;6.60;4.03;;;;;;;7.12;88.86;98116.97;5061099;28;20044;-59
2023/04/24 03:29:53;;;;;;;6.10;3.72;;;;;;;6.97;89.15;98111.44;5057667;28;20364;-59
2023/04/24 03:32:21;;;;;;;;;;;;;;;6.93;90.18;98118.28;5054875;28;20049;-59
2023/04/24 03:34:48;;;;;;;7.53;4.28;;;;;;;7.03;90.88;98122.97;5062204;28;19925;-59
2023/04/24 03:37:15;;;;;;;5.25;3.83;;;;;;;7.02;89.61;98113.38;5053746;28;20053;-59
2023/04/24 03:39:49;;;;;;;7.32;4.05;;;;;;;6.98;88.53;98107.72;5069184;28;20066;-59
2023/04/24 03:42:19;;;;;;;7.75;4.20;;;;;;;6.85;90.64;98108.06;5059331;28;20041;-59
2023/04/24 03:44:52;;;;;;;5.30;3.63;;;;;;;6.68;91.93;98103.56;5054849;28;20728;-59
2023/04/24 03:47:23;;;;;;;7.30;3.97;;;;;;;6.44;92.69;98108.28;5070644;28;20049;-59
2023/04/24 03:49:51;;;;;;;6.53;4.50;;;;;;;6.34;94.62;98108.13;5055993;28;20049;-59
2023/04/24 03:52:18;;;;;;;10.80;4.97;;;;;;;6.15;95.78;98115.53;5059886;28;20041;-59
2023/04/24 03:54:46;;;;;;;5.88;3.97;;;;;;;6.25;96.59;98110.38;5053897;28;20029;-59
2023/04/24 03:57:14;;;;;;;9.88;5.50;;;;;;;6.04;96.63;98117.22;5059739;28;20418;-59
2023/04/24 03:59:53;;;;;;;8.73;5.35;;;;;;;5.93;97.42;98117.25;5050266;28;20043;-59
2023/04/24 04:02:20;;;;;;;9.73;5.05;;;;;;;5.95;97.19;98118.66;5056007;28;20061;-59
2023/04/24 04:04:47;;;;;;;11.20;5.18;;;;;;;5.88;97.33;98119.81;5055280;28;20047;-59
2023/04/24 04:07:14;;;;;;;10.55;6.10;;;;;;;5.82;98.18;98106.44;5050797;28;20037;-59
2023/04/24 04:09:41;;;;;;;9.02;5.60;;;;;;;5.90;98.37;98117.72;5058202;28;20047;-59
2023/04/24 04:12:08;;;;;;;8.68;5.80;;;;;;;5.99;97.20;98116.31;5059988;28;20458;-59
2023/04/24 04:14:37;;;;;;;10.45;5.90;;;;;;;6.03;96.03;98120.91;5056949;28;20124;-59
2023/04/24 04:17:04;;;;;;;9.88;6.03;;;;;;;6.03;96.25;98122.78;5051696;28;20229;-59
2023/04/24 04:19:32;;;;;;;8.90;5.03;;;;;;;6.14;96.72;98126.41;5050758;28;20097;-59
2023/04/24 04:21:59;;;;;;;9.88;5.43;;;;;;;6.05;96.08;98126.00;5054753;28;20048;-59
2023/04/24 04:24:52;;;;;;;7.55;5.45;;;;;;;5.91;96.67;98130.78;5052082;28;20041;-59
2023/04/24 04:27:22;;;;;;;8.50;5.78;;;;;;;5.70;99.03;98139.44;5058331;28;20045;-59
2023/04/24 04:29:59;;;;;;;8.90;4.97;;;;;;;5.72;99.06;98148.00;5072456;28;20171;-59
2023/04/24 04:32:26;;;;;;;8.20;5.50;;;;;;;5.80;99.54;98153.72;5053529;28;20127;-59
2023/04/24 04:34:54;;;;;;;8.45;5.40;;;;;;;6.25;97.85;98150.28;5060585;28;20400;-59
2023/04/24 04:37:22;;;;;;;11.05;4.72;;;;;;;6.26;95.83;98145.78;5061494;28;20041;-59
2023/04/24 04:40:11;;;;;;;9.77;4.70;;;;;;;6.18;96.61;98141.66;5059486;28;20520;-58
2023/04/24 04:42:45;;;;;;;8.02;5.10;;;;;;;6.06;98.18;98140.91;5057213;28;20056;-58
2023/04/24 04:45:16;;;;;;;7.70;5.18;;;;;;;6.41;97.47;98134.56;5054344;28;20093;-58
2023/04/24 04:48:03;;;;;;;9.27;4.95;;;;;;;6.57;97.33;98139.09;5057929;28;20047;-61
2023/04/24 04:50:31;;;;;;;7.20;4.80;;;;;;;7.80;88.85;98140.69;5042793;28;20044;-60
2023/04/24 04:53:05;;;;;;;8.82;4.50;;;;;;;8.18;85.83;98142.38;5050661;28;20669;-60
2023/04/24 04:55:35;;;;;;;7.53;5.00;;;;;;;8.88;82.95;98138.94;5058200;28;20047;-59
2023/04/24 04:58:10;;;;;;;6.68;4.68;;;;;;;9.04;80.98;98143.31;5056683;28;20464;-60
2023/04/24 05:00:41;;;;;;;7.70;4.50;;;;;;;8.80;82.24;98153.59;5056275;28;20502;-59
2023/04/24 05:03:17;;;;;;;10.38;4.85;;;;;;;9.33;78.22;98158.97;5059821;28;20052;-60
2023/04/24 05:05:44;;;;;;;6.95;4.40;;;;;;;9.32;77.95;98157.38;5057193;28;20048;-60
2023/04/24 05:08:15;;;;;;;8.25;5.30;;;;;;;9.75;77.24;98147.38;5054837;28;20499;-60
2023/04/24 05:10:43;;;;;;;7.30;4.60;;;;;;;9.78;76.12;98152.19;5060625;28;20117;-60
2023/04/24 05:13:10;;;;;;;8.25;5.10;;;;;;;9.77;76.43;98156.75;5055914;28;20045;-60
2023/04/24 05:15:39;;;;;;;15.68;5.20;;;;;;;9.04;78.49;98159.38;5059741;28;20045;-59
2023/04/24 05:18:06;;;;;;;9.77;5.25;;;;;;;9.43;80.62;98167.03;5055622;28;20390;-59
2023/04/24 05:20:33;;;;;;;9.20;5.00;;;;;;;8.33;82.17;98171.06;5052070;28;20060;-59
2023/04/24 05:23:01;;;;;;;10.23;5.63;;;;;;;7.96;85.33;98182.47;5050170;28;20136;-60
2023/04/24 05:25:31;;;;;;;7.78;5.35;;;;;;;9.79;80.05;98185.94;5056003;28;20087;-59
2023/04/24 05:28:05;;;;;;;9.32;4.55;;;;;;;10.47;74.83;98196.53;5054511;28;20041;-60
2023/04/24 05:30:33;;;;;;;8.63;5.00;;;;;;;8.31;83.14;98199.09;5055368;28;20563;-60
2023/04/24 05:33:02;;;;;;;8.70;5.60;;;;;;;8.21;86.10;98207.78;5055662;28;20220;-59
2023/04/24 05:35:31;;;;;;;8.45;5.28;;;;;;;10.61;77.07;98207.50;5030577;28;20411;-60
2023/04/24 05:37:58;;;;;;;6.85;5.05;;;;;;;8.88;81.53;98203.06;5055460;28;20044;-59
2023/04/24 05:40:25;;;;;;;9.25;5.53;;;;;;;8.37;86.50;98204.22;5056141;28;20138;-59
2023/04/24 05:42:52;;;;;;;9.13;5.40;;;;;;;7.70;89.57;98207.25;5050791;28;20048;-59
2023/04/24 05:45:21;;;;;;;10.43;5.78;;;;;;;7.41;91.30;98211.94;5055569;28;20106;-59
2023/04/24 05:47:48;;;;;;;9.40;6.15;;;;;;;7.52;92.15;98209.16;5046994;28;20037;-59
2023/04/24 05:50:16;;;;;;;11.07;6.80;;;;;;;7.37;92.86;98216.97;5052906;28;20029;-59
2023/04/24 05:52:43;;;;;;;9.27;5.53;;;;;;;7.18;93.76;98212.97;5045379;28;20103;-60
2023/04/24 05:55:23;;;;;;;12.67;7.73;;;;;;;7.44;93.52;98214.94;5044381;28;20053;-59
2023/04/24 05:57:50;;;;;;;10.85;6.90;;;;;;;7.51;93.03;98228.06;5068308;28;20102;-59
2023/04/24 06:00:19;;;;;;;8.82;6.65;;;;;;;7.48;92.93;98223.22;5057703;28;20132;-59
2023/04/24 06:02:52;;;;;;;12.55;6.70;;;;;;;7.41;93.94;98225.25;5055625;28;20057;-59
2023/04/24 06:05:20;;;;;;;12.02;7.47;;;;;;;7.55;93.05;98229.19;5056575;28;20078;-59
2023/04/24 06:07:48;;;;;;;11.93;7.20;;;;;;;8.03;92.37;98224.16;5058179;28;20048;-59
2023/04/24 06:10:16;;;;;;;9.70;7.10;;;;;;;8.24;89.80;98214.50;5059047;28;20052;-59
2023/04/24 06:12:45;;;;;;;10.90;7.53;;;;;;;10.61;80.39;98215.56;5057890;28;20044;-59
2023/04/24 06:15:17;;;;;;;9.00;6.18;;;;;;;12.12;71.08;98225.44;5060688;28;20383;-60
2023/04/24 06:17:52;;;;;;;8.55;5.68;;;;;;;9.92;78.03;98233.59;5059657;28;20052;-59
2023/04/24 06:20:21;;;;;;;8.02;5.88;;;;;;;9.56;83.80;98233.44;5057856;28;20045;-60
2023/04/24 06:22:48;;;;;;;8.88;6.30;;;;;;;9.27;84.33;98238.34;5055116;28;20037;-60
2023/04/24 06:25:15;;;;;;;11.15;6.82;;;;;;;9.08;84.53;98235.28;5049018;28;20147;-60
2023/04/24 06:27:42;;;;;;;10.38;6.72;;;;;;;8.72;85.79;98223.53;5048626;28;20915;-60
2023/04/24 06:30:10;;;;;;;11.25;6.88;;;;;;;8.94;85.29;98220.75;5049427;28;20079;-59
2023/04/24 06:32:38;;;;;;;10.45;7.53;;;;;;;8.90;85.55;98233.03;5049814;28;20134;-59
2023/04/24 06:35:07;;;;;;;9.98;7.05;;;;;;;8.98;84.94;98230.66;5059012;28;20103;-59
2023/04/24 06:37:35;;;;;;;12.48;7.32;;;;;;;8.61;85.75;98230.63;5055831;28;20047;-60
2023/04/24 06:40:02;;;;;;;10.60;6.43;;;;;;;8.66;85.41;98228.00;5055870;28;20045;-59
2023/04/24 06:42:29;;;;;;;11.77;7.30;;;;;;;8.60;84.86;98221.81;5057120;28;20051;-59
2023/04/24 06:44:56;;;;;;;10.95;6.80;;;;;;;8.80;85.59;98228.41;5062160;28;20041;-60
2023/04/24 06:47:23;;;;;;;9.80;6.82;;;;;;;9.02;83.02;98221.09;5060573;28;20094;-60
2023/04/24 06:49:52;;;;;;;8.05;5.88;;;;;;;9.64;81.54;98216.09;5059118;28;20099;-59
2023/04/24 06:52:19;;;;;;;12.65;6.55;;;;;;;11.70;73.40;98218.59;5058481;28;20041;-59
2023/04/24 06:54:47;;;;;;;9.20;5.70;;;;;;;11.86;70.11;98214.00;5066638;28;20079;-60
2023/04/24 06:57:15;;;;;;;8.43;5.32;;;;;;;11.13;72.70;98206.41;5057690;28;20040;-60
2023/04/24 06:59:43;;;;;;;11.88;6.13;;;;;;;10.12;77.08;98206.88;5055961;28;20044;-60
2023/04/24 07:02:10;;;;;;;9.38;6.07;;;;;;;9.58;80.34;98201.88;5056884;28;20048;-60
2023/04/24 07:04:37;;;;;;;9.10;6.30;;;;;;;9.42;81.19;98210.91;5054135;28;20065;-61
2023/04/24 07:07:04;;;;;;;7.72;5.90;;;;;;;8.99;82.45;98210.13;5059658;28;20070;-60
2023/04/24 07:09:31;;;;;;;12.38;5.68;;;;;;;9.24;83.02;98207.59;5061153;28;20133;-60
2023/04/24 07:12:00;;;;;;;9.63;6.30;;;;;;;8.93;85.19;98200.44;5052298;28;20045;-59
2023/04/24 07:14:27;;;;;;;9.75;6.13;;;;;;;9.23;84.81;98203.28;5055965;28;20040;-60
2023/04/24 07:16:54;;;;;;;7.38;5.45;;;;;;;9.15;85.09;98198.44;5060487;28;20053;-59
2023/04/24 07:19:21;;;;;;;7.90;5.93;;;;;;;9.17;84.22;98198.19;5057441;28;20526;-59
2023/04/24 07:21:48;;;;;;;9.40;5.22;;;;;;;9.05;83.90;98209.06;5054418;28;20586;-60
2023/04/24 07:24:17;;;;;;;7.70;5.22;;;;;;;9.34;83.63;98211.41;5050960;28;20064;-60
2023/04/24 07:26:46;;;;;;;9.15;5.35;;;;;;;10.40;78.77;98206.69;5050912;28;20380;-59
2023/04/24 07:29:15;;;;;;;7.75;4.57;;;;;;;10.03;79.38;98208.47;5049971;28;20052;-60
2023/04/24 07:31:44;;;;;;;7.78;5.18;;;;;;;10.12;80.27;98217.59;5054923;28;20044;-60
2023/04/24 07:34:12;;;;;;;7.07;4.80;;;;;;;10.36;78.64;98223.31;5059993;28;20044;-59
2023/04/24 07:36:39;;;;;;;6.30;4.90;;;;;;;10.54;79.31;98222.00;5062704;28;20044;-59
2023/04/24 07:39:07;;;;;;;7.72;4.43;;;;;;;10.18;79.39;98223.75;5053572;28;20041;-59
2023/04/24 07:41:35;;;;;;;7.20;4.80;;;;;;;9.72;80.11;98227.09;5062154;28;20075;-60
2023/04/24 07:44:02;;;;;;;7.78;4.60;;;;;;;9.72;81.20;98227.09;5059674;28;20040;-60
2023/04/24 07:46:34;;;;;;;9.32;4.30;;;;;;;9.53;81.56;98231.28;5054656;28;20130;-59
2023/04/24 07:49:02;;;;;;;5.55;4.25;;;;;;;9.48;82.41;98239.28;5057485;28;20068;-60
2023/04/24 07:51:29;;;;;;;5.43;3.80;;;;;;;9.28;82.83;98238.13;5057888;28;20491;-59
2023/04/24 07:53:56;;;;;;;6.20;4.03;;;;;;;9.16;83.77;98237.50;5062261;28;20044;-59
2023/04/24 07:56:23;;;;;;;5.40;3.63;;;;;;;9.10;83.87;98246.53;5062211;28;20052;-60
2023/04/24 07:58:50;;;;;;;5.28;3.65;;;;;;;8.93;85.43;98256.56;5058216;28;20352;-59
2023/04/24 08:01:17;;;;;;;5.95;4.20;;;;;;;8.71;86.69;98251.28;5053883;28;20244;-59
2023/04/24 08:03:46;;;;;;;6.78;3.78;;;;;;;8.89;86.10;98258.94;5053585;28;20057;-60
2023/04/24 08:06:13;;;;;;;7.90;4.07;;;;;;;8.73;86.27;98266.00;5060647;28;20045;-59
2023/04/24 08:08:40;;;;;;;8.40;4.25;;;;;;;8.76;87.42;98265.50;5053266;28;20211;-59
2023/04/24 08:11:07;;;;;;;6.88;4.03;;;;;;;8.68;87.74;98267.81;5055718;28;20040;-59
2023/04/24 08:13:34;;;;;;;6.28;4.13;;;;;;;8.62;89.02;98272.31;5054720;28;20060;-59
2023/04/24 08:16:01;;;;;;;5.95;4.00;;;;;;;8.58;89.71;98276.53;5055312;28;20535;-59
2023/04/24 08:18:28;;;;;;;7.65;4.40;;;;;;;8.54;90.56;98273.59;5058190;28;20059;-59
2023/04/24 08:21:01;;;;;;;6.90;3.90;;;;;;;8.43;90.12;98287.88;5057463;28;20072;-59
2023/04/24 08:23:28;;;;;;;5.32;3.90;;;;;;;8.40;90.99;98289.19;5055029;28;20052;-60
2023/04/24 08:25:55;;;;;;;7.05;4.00;;;;;;;8.51;90.84;98289.28;5054560;28;20060;-59
2023/04/24 08:28:23;;;;;;;5.45;3.50;;;;;;;8.58;90.16;98280.03;5052492;28;20049;-59
2023/04/24 08:30:54;;;;;;;6.75;4.32;;;;;;;8.59;90.10;98292.34;5050728;28;20543;-60
2023/04/24 08:33:24;;;;;;;6.30;4.10;;;;;;;8.63;90.10;98300.63;5051710;28;20053;-59
2023/04/24 08:35:51;;;;;;;6.28;3.60;;;;;;;8.99;89.07;98306.31;5054935;28;20483;-59
2023/04/24 08:38:19;;;;;;;7.20;3.80;;;;;;;9.13;88.75;98310.16;5057724;28;20144;-59
2023/04/24 08:40:49;;;;;;;5.57;3.60;;;;;;;9.36;87.87;98318.88;5054761;28;20169;-59
2023/04/24 08:43:16;;;;;;;7.47;3.92;;;;;;;9.26;87.94;98325.78;5055676;28;20069;-59
2023/04/24 08:45:43;;;;;;;5.07;3.33;;;;;;;9.24;88.00;98335.13;5057262;28;20132;-59
2023/04/24 08:48:10;;;;;;;9.05;3.25;;;;;;;9.38;88.00;98324.78;5050688;28;20043;-59
2023/04/24 08:50:37;;;;;;;4.80;3.25;;;;;;;9.11;88.72;98331.03;5058676;28;20427;-59
2023/04/24 08:53:04;;;;;;;6.57;3.10;;;;;;;9.02;88.75;98332.53;5055817;28;20071;-59
2023/04/24 08:55:33;;;;;;;4.95;2.90;;;;;;;9.14;87.73;98335.06;5051562;28;20100;-59
2023/04/24 08:58:03;;;;;;;5.68;2.88;;;;;;;9.32;87.48;98342.69;5055446;28;20147;-59
2023/04/24 09:00:30;;;;;;;5.15;3.03;;;;;;;9.68;86.37;98335.72;5050262;28;20517;-59
2023/04/24 09:02:57;;;;;;;4.82;2.80;;;;;;;9.85;85.55;98340.88;5048782;28;20224;-60
2023/04/24 09:05:27;;;;;;;4.43;2.90;;;;;;;9.86;84.79;98345.19;5055920;28;20118;-60
2023/04/24 09:07:57;;;;;;;3.30;2.30;;;;;;;9.78;85.41;98347.53;5053978;28;20126;-59
2023/04/24 09:10:25;;;;;;;4.25;2.30;;;;;;;9.70;85.97;98360.31;5053573;28;20743;-59
2023/04/24 09:12:53;;;;;;;5.32;2.63;;;;;;;9.51;87.01;98356.47;5057718;28;20037;-59
2023/04/24 09:15:21;;;;;;;4.82;2.70;;;;;;;9.39;88.51;98359.31;5059240;28;20088;-60
2023/04/24 09:17:48;;;;;;;4.32;2.60;;;;;;;9.60;87.36;98368.28;5048518;28;20033;-59
2023/04/24 09:20:15;;;;;;;4.85;2.30;;;;;;;9.43;86.90;98370.28;5053061;28;20032;-59
2023/04/24 09:22:43;;;;;;;3.70;2.30;;;;;;;9.63;89.25;98375.78;5055240;28;20083;-59
2023/04/24 09:25:12;;;;;;;3.30;2.30;;;;;;;9.59;87.34;98379.25;5055475;28;20040;-60
2023/04/24 09:27:42;;;;;;;3.80;2.42;;;;;;;9.68;86.95;98380.38;5046012;28;20069;-59
2023/04/24 09:30:11;;;;;;;;;;;;;;;9.77;86.55;98383.41;5052894;28;20075;-60
2023/04/24 09:32:38;;;;;;;3.72;2.53;;;;;;;9.65;86.76;98395.06;5056911;28;19924;-60
2023/04/24 09:35:07;;;;;;;3.88;2.20;;;;;;;9.78;86.07;98393.03;5056567;28;20079;-59
2023/04/24 09:37:36;;;;;;;5.47;2.13;;;;;;;9.93;85.18;98395.78;5052864;28;20051;-60
2023/04/24 09:40:11;;;;;;;3.38;2.22;;;;;;;10.14;83.30;98392.19;5053766;28;20040;-60
2023/04/24 09:42:38;;;;;;;5.55;2.28;;;;;;;10.14;82.00;98402.91;5049404;28;20049;-59
2023/04/24 09:45:11;;;;;;;4.00;2.10;;;;;;;10.35;80.20;98409.19;5053699;28;20142;-60
2023/04/24 09:47:38;;;;;;;3.30;2.10;;;;;;;10.34;78.52;98402.22;5053813;28;20045;-60
2023/04/24 09:50:15;;;;;;;3.33;2.00;;;;;;;10.56;77.03;98412.78;5049492;28;20554;-60
2023/04/24 09:52:43;;;;;;;2.47;1.83;;;;;;;10.56;76.22;98410.09;5058465;28;20115;-60
2023/04/24 09:55:19;;;;;;;2.90;1.95;;;;;;;10.53;75.17;98417.84;5051979;28;20071;-59
2023/04/24 09:57:52;;;;;;;2.85;1.90;;;;;;;10.94;71.33;98426.03;5055920;28;20128;-59
2023/04/24 10:00:25;;;;;;;2.58;1.80;;;;;;;11.27;71.28;98411.34;5052362;28;20982;-59
2023/04/24 10:02:58;;;;;;;2.50;1.80;;;;;;;11.38;70.58;98415.66;5052873;28;20052;-60
2023/04/24 10:05:27;;;;;;;2.05;1.73;;;;;;;11.43;71.09;98421.00;5049196;28;20052;-60
2023/04/24 10:07:57;;;;;;;4.07;2.15;;;;;;;11.32;71.47;98416.69;5054178;28;20534;-59
2023/04/24 10:10:24;;;;;;;;;;;;;;;11.10;70.46;98424.97;5048650;28;20159;-59
2023/04/24 10:12:52;;;;;;;3.92;2.30;;;;;;;10.63;70.66;98430.47;5052582;28;19921;-60
2023/04/24 10:15:21;;;;;;;3.05;2.20;;;;;;;10.42;71.26;98427.69;5055454;28;20410;-59
2023/04/24 10:17:51;;;;;;;3.97;2.53;;;;;;;10.60;71.81;98436.34;5058868;28;20041;-59
2023/04/24 10:20:20;;;;;;;4.55;2.65;;;;;;;10.60;72.34;98436.34;5050651;28;20037;-59
2023/04/24 10:22:49;;;;;;;5.68;2.80;;;;;;;10.81;71.83;98438.06;5055083;28;20257;-58
2023/04/24 10:25:20;;;;;;;5.85;2.80;;;;;;;10.74;72.24;98445.53;5058098;28;20132;-59
2023/04/24 10:27:47;;;;;;;4.45;2.72;;;;;;;10.85;71.71;98455.22;5059935;28;20058;-59
2023/04/24 10:30:15;;;;;;;5.43;3.08;;;;;;;10.83;70.99;98446.63;5053926;28;20132;-59
2023/04/24 10:32:43;;;;;;;5.00;3.22;;;;;;;10.73;73.11;98452.78;5057890;28;20040;-59
2023/04/24 10:35:10;;;;;;;5.35;3.35;;;;;;;11.14;73.53;98468.19;5059147;28;20048;-59
2023/04/24 10:37:38;;;;;;;6.80;3.40;;;;;;;11.02;72.72;98463.03;5060082;28;20055;-59
2023/04/24 10:40:08;;;;;;;7.32;3.25;;;;;;;10.72;73.08;98471.78;5051965;28;20120;-61
2023/04/24 10:42:35;;;;;;;6.60;3.85;;;;;;;10.73;72.83;98466.16;5063744;28;20138;-59
2023/04/24 10:45:06;;;;;;;8.55;4.07;;;;;;;10.66;73.74;98464.78;5054760;28;20049;-59
2023/04/24 10:47:40;;;;;;;7.38;3.92;;;;;;;10.62;73.96;98475.22;5059689;28;20060;-60
2023/04/24 10:50:10;;;;;;;7.10;4.05;;;;;;;10.47;73.95;98480.50;5057360;28;20045;-59
2023/04/24 10:53:05;;;;;;;9.23;4.70;;;;;;;10.36;73.30;98495.72;5056776;28;20138;-60
2023/04/24 10:55:48;;;;;;;9.48;4.65;;;;;;;10.33;72.43;98496.22;5057661;28;20131;-60
2023/04/24 10:58:16;;;;;;;8.38;4.53;;;;;;;10.11;72.98;98490.97;5056951;28;20434;-60
2023/04/24 11:00:44;;;;;;;9.50;5.10;;;;;;;10.11;74.20;98494.47;5056667;28;20037;-60
2023/04/24 11:03:24;;;;;;;10.65;4.93;;;;;;;10.32;72.75;98495.41;5049937;28;20040;-60
2023/04/24 11:05:57;;;;;;;8.63;4.85;;;;;;;10.21;73.79;98506.28;5052326;28;20041;-59
2023/04/24 11:08:28;;;;;;;9.05;4.70;;;;;;;10.54;73.33;98514.03;5053292;28;20052;-59
2023/04/24 11:11:00;;;;;;;6.05;4.30;;;;;;;10.68;71.78;98503.66;5058431;28;20048;-59
2023/04/24 11:13:29;;;;;;;9.65;5.50;;;;;;;10.93;72.39;98515.56;5058878;28;20056;-59
2023/04/24 11:16:13;;;;;;;;;;;;;;;10.75;71.42;98522.19;5059268;28;20045;-59
2023/04/24 11:18:44;;;;;;;8.60;4.95;;;;;;;10.82;72.80;98533.47;5047293;28;19928;-59
2023/04/24 11:21:13;;;;;;;10.05;5.10;;;;;;;10.93;72.38;98532.47;5052268;28;20049;-59
2023/04/24 11:23:41;;;;;;;9.90;4.80;;;;;;;10.65;73.70;98547.03;5054291;28;20052;-59
2023/04/24 11:26:11;;;;;;;9.05;4.85;;;;;;;10.53;75.08;98549.94;5054479;28;20552;-59
2023/04/24 11:28:38;;;;;;;12.13;4.85;;;;;;;10.61;74.72;98553.19;5045581;28;20585;-59
2023/04/24 11:31:36;;;;;;;10.82;5.38;;;;;;;10.27;74.15;98548.13;5053394;28;20052;-59
2023/04/24 11:34:10;;;;;;;9.88;5.35;;;;;;;10.60;73.42;98551.56;5049481;28;20063;-59
2023/04/24 11:36:39;;;;;;;10.27;5.32;;;;;;;10.58;74.32;98549.97;5055109;28;20474;-59
2023/04/24 11:39:06;;;;;;;9.77;5.53;;;;;;;10.48;74.55;98552.59;5054864;28;20406;-59
2023/04/24 11:41:34;;;;;;;11.30;5.90;;;;;;;10.61;73.31;98548.66;5060209;28;20036;-59
2023/04/24 11:44:01;;;;;;;11.02;5.38;;;;;;;10.92;72.17;98552.28;5057684;28;20044;-59
2023/04/24 11:46:29;;;;;;;8.43;4.95;;;;;;;11.12;71.37;98546.22;5059965;28;20362;-59